Time;durP1;ratioP1;P1;durP2;ratioP2;P2;SDS_P1;SDS_P2;PMS_P1;PMS_P2;Temp;Humidity;BMP_temperature;BMP_pressure;BME280_temperature;BME280_humidity;BME280_pressure;Samples;Min_cycle;Max_cycle;Signal;HPM_P1;HPM_P2
2022/11/17 00:01:42;;;;;;;14.27;10.10;;;;;;;;;;6265930;28;20099;-63
2022/11/17 00:04:44;;;;;;;15.20;10.57;;;;;;;;;;6265312;28;20950;-63
2022/11/17 00:07:47;;;;;;;12.85;10.00;;;;;;;;;;6268745;28;20257;-62
2022/11/17 00:10:49;;;;;;;14.10;10.65;;;;;;;;;;6270043;28;20040;-63
2022/11/17 00:17:21;;;;;;;16.77;11.60;;;;;;;;;;6150570;28;20054;-62
2022/11/17 00:23:46;;;;;;;19.77;12.63;;;;;;;;;;6156310;28;20044;-63
2022/11/17 00:27:01;;;;;;;17.10;12.02;;;;;;;;;;6155383;28;20043;-64
2022/11/17 00:30:03;;;;;;;18.73;12.57;;;;;;;;;;6160267;28;20110;-63
2022/11/17 00:36:25;;;;;;;18.35;12.70;;;;;;;;;;6157561;28;20054;-63
2022/11/17 00:39:28;;;;;;;21.63;12.90;;;;;;;;;;6152717;28;20051;-63
2022/11/17 00:42:29;;;;;;;18.73;12.63;;;;;;;;;;6151106;28;20085;-62
2022/11/17 00:45:31;;;;;;;17.52;11.80;;;;;;;;;;6158844;28;20081;-63
2022/11/17 00:48:33;;;;;;;20.63;13.45;;;;;;;;;;6150735;28;20038;-63
2022/11/17 00:51:34;;;;;;;18.42;13.15;;;;;;;;;;6207674;28;20277;-63
2022/11/17 00:54:37;;;;;;;19.70;13.38;;;;;;;;;;6241636;28;20096;-63
2022/11/17 00:57:39;;;;;;;21.25;13.90;;;;;;;;;;6244961;28;20104;-62
2022/11/17 01:00:41;;;;;;;21.80;14.07;;;;;;;;;;6242886;28;20057;-62
2022/11/17 01:03:43;;;;;;;19.90;13.52;;;;;;;;;;6242878;28;20052;-62
2022/11/17 01:06:46;;;;;;;18.60;13.32;;;;;;;;;;6240145;28;20065;-63
2022/11/17 01:09:49;;;;;;;22.57;14.43;;;;;;;;;;6243684;28;20288;-62
2022/11/17 01:12:51;;;;;;;19.67;13.88;;;;;;;;;;6242615;28;20468;-63
2022/11/17 01:15:52;;;;;;;19.83;13.38;;;;;;;;;;6242720;28;20237;-62
2022/11/17 01:18:54;;;;;;;22.95;14.52;;;;;;;;;;6269737;28;20053;-63
2022/11/17 01:21:56;;;;;;;22.70;13.80;;;;;;;;;;6265215;28;20060;-63
2022/11/17 01:24:59;;;;;;;21.95;13.95;;;;;;;;;;6265190;28;20059;-62
2022/11/17 01:28:01;;;;;;;22.92;14.35;;;;;;;;;;6266885;28;20242;-63
2022/11/17 01:31:04;;;;;;;22.92;15.15;;;;;;;;;;6268047;28;20104;-63
2022/11/17 01:34:07;;;;;;;23.83;14.93;;;;;;;;;;6271218;28;20052;-63
2022/11/17 01:37:20;;;;;;;24.88;16.00;;;;;;;;;;6267599;28;20053;-63
2022/11/17 01:40:23;;;;;;;21.37;14.67;;;;;;;;;;6270201;28;20236;-62
2022/11/17 01:43:40;;;;;;;25.67;15.85;;;;;;;;;;6268427;28;20332;-62
2022/11/17 01:46:41;;;;;;;23.73;14.98;;;;;;;;;;6261444;28;20053;-63
2022/11/17 01:49:43;;;;;;;25.05;15.57;;;;;;;;;;6269099;28;20044;-63
2022/11/17 01:52:45;;;;;;;25.20;16.00;;;;;;;;;;6264984;28;20149;-62
2022/11/17 01:55:52;;;;;;;25.27;15.73;;;;;;;;;;6264117;28;20947;-61
2022/11/17 01:58:58;;;;;;;24.95;15.02;;;;;;;;;;6262897;28;20175;-63
2022/11/17 02:01:59;;;;;;;24.55;14.40;;;;;;;;;;6270563;28;20356;-62
2022/11/17 02:05:05;;;;;;;21.55;14.98;;;;;;;;;;6263550;28;20057;-63
2022/11/17 02:08:07;;;;;;;23.73;14.70;;;;;;;;;;6262483;28;20352;-62
2022/11/17 02:11:12;;;;;;;24.75;15.20;;;;;;;;;;6252669;28;20776;-62
2022/11/17 02:14:13;;;;;;;21.85;14.60;;;;;;;;;;6270159;28;20256;-63
2022/11/17 02:17:15;;;;;;;22.50;14.90;;;;;;;;;;6271562;28;20094;-64
2022/11/17 02:20:23;;;;;;;23.85;14.88;;;;;;;;;;6269186;28;20337;-62
2022/11/17 02:23:54;;;;;;;22.33;14.68;;;;;;;;;;6267772;28;20049;-62
2022/11/17 02:27:33;;;;;;;24.70;14.80;;;;;;;;;;6253354;28;20060;-62
2022/11/17 02:30:40;;;;;;;23.88;15.05;;;;;;;;;;6257062;28;20054;-62
2022/11/17 02:33:53;;;;;;;24.05;14.73;;;;;;;;;;6264146;28;20061;-63
2022/11/17 02:36:57;;;;;;;23.80;14.50;;;;;;;;;;6265730;28;20041;-62
2022/11/17 02:39:59;;;;;;;;;;;;;;;;;;6267350;28;20470;-62
2022/11/17 02:46:23;;;;;;;24.48;15.52;;;;;;;;;;6264203;28;20045;-62
2022/11/17 02:49:28;;;;;;;26.52;15.98;;;;;;;;;;6267834;28;20045;-62
2022/11/17 02:52:30;;;;;;;24.70;15.90;;;;;;;;;;6265604;28;20124;-62
2022/11/17 02:55:34;;;;;;;23.52;15.00;;;;;;;;;;6264163;28;20052;-63
2022/11/17 02:58:36;;;;;;;21.92;14.63;;;;;;;;;;6256819;28;20095;-62
2022/11/17 03:01:52;;;;;;;24.02;14.95;;;;;;;;;;6254217;28;20049;-62
2022/11/17 03:05:04;;;;;;;22.73;14.07;;;;;;;;;;6263527;28;20123;-62
2022/11/17 03:08:14;;;;;;;22.45;13.48;;;;;;;;;;6263463;28;20056;-62
2022/11/17 03:11:16;;;;;;;21.98;14.02;;;;;;;;;;6264044;28;20095;-62
2022/11/17 03:14:21;;;;;;;22.40;14.30;;;;;;;;;;6266014;28;20129;-62
2022/11/17 03:17:29;;;;;;;23.20;14.63;;;;;;;;;;6270819;28;20068;-62
2022/11/17 03:20:35;;;;;;;22.42;13.63;;;;;;;;;;6259052;28;20056;-62
2022/11/17 03:23:41;;;;;;;22.08;14.18;;;;;;;;;;6259464;28;20115;-62
2022/11/17 03:26:46;;;;;;;22.38;14.60;;;;;;;;;;6261587;28;20053;-63
2022/11/17 03:29:50;;;;;;;22.73;14.15;;;;;;;;;;6263175;28;20256;-62
2022/11/17 03:32:57;;;;;;;24.58;14.50;;;;;;;;;;6272569;28;20037;-62
2022/11/17 03:36:01;;;;;;;20.30;14.05;;;;;;;;;;6267348;28;20060;-62
2022/11/17 03:39:06;;;;;;;23.77;15.18;;;;;;;;;;6271091;28;20045;-62
2022/11/17 03:42:10;;;;;;;19.88;13.18;;;;;;;;;;6268704;28;20048;-62
2022/11/17 03:45:17;;;;;;;22.13;14.43;;;;;;;;;;6268001;28;20086;-63
2022/11/17 03:48:22;;;;;;;21.08;14.15;;;;;;;;;;6266065;28;20052;-62
2022/11/17 03:51:25;;;;;;;23.02;14.50;;;;;;;;;;6266872;28;20041;-62
2022/11/17 03:54:27;;;;;;;22.70;14.60;;;;;;;;;;6266628;28;20060;-61
2022/11/17 03:57:33;;;;;;;30.30;15.27;;;;;;;;;;6269779;28;20091;-62
2022/11/17 04:00:35;;;;;;;22.83;15.35;;;;;;;;;;6269158;28;20056;-62
2022/11/17 04:03:38;;;;;;;24.95;15.25;;;;;;;;;;6267759;28;20057;-63
2022/11/17 04:06:39;;;;;;;20.25;13.98;;;;;;;;;;6266341;28;20053;-63
2022/11/17 04:09:41;;;;;;;22.55;13.90;;;;;;;;;;6270142;28;20151;-62
2022/11/17 04:16:02;;;;;;;23.65;14.85;;;;;;;;;;6268164;28;20048;-62
2022/11/17 04:19:05;;;;;;;21.90;14.57;;;;;;;;;;6265673;28;20329;-62
2022/11/17 04:22:06;;;;;;;23.17;14.75;;;;;;;;;;6267708;28;20053;-62
2022/11/17 04:25:09;;;;;;;20.50;13.77;;;;;;;;;;6269260;28;20107;-63
2022/11/17 04:31:28;;;;;;;24.42;15.32;;;;;;;;;;6250632;28;20045;-63
2022/11/17 04:34:31;;;;;;;20.67;14.07;;;;;;;;;;6264742;28;20064;-62
2022/11/17 04:37:33;;;;;;;24.35;15.00;;;;;;;;;;6265775;28;20328;-63
2022/11/17 04:41:52;;;;;;;24.80;15.73;;;;;;;;;;6265043;28;20371;-63
2022/11/17 04:43:55;;;;;;;24.77;15.38;;;;;;;;;;6267853;28;20053;-62
2022/11/17 04:46:57;;;;;;;22.42;14.65;;;;;;;;;;6266770;28;20053;-62
2022/11/17 04:50:00;;;;;;;23.67;14.70;;;;;;;;;;6265939;28;20052;-61
2022/11/17 04:53:02;;;;;;;24.58;15.07;;;;;;;;;;6265085;28;20050;-65
2022/11/17 04:56:04;;;;;;;20.85;14.32;;;;;;;;;;6266669;28;20102;-63
2022/11/17 04:59:06;;;;;;;24.20;15.27;;;;;;;;;;6266805;28;20210;-62
2022/11/17 05:02:08;;;;;;;22.70;15.10;;;;;;;;;;6264327;28;20155;-63
2022/11/17 05:05:11;;;;;;;22.42;14.85;;;;;;;;;;6263371;28;20229;-63
2022/11/17 05:08:13;;;;;;;25.13;15.30;;;;;;;;;;6269613;28;20083;-62
2022/11/17 05:14:35;;;;;;;24.58;15.45;;;;;;;;;;6223579;28;1184289;-63
2022/11/17 05:17:36;;;;;;;22.75;14.88;;;;;;;;;;6256694;28;20103;-62
2022/11/17 05:20:39;;;;;;;27.85;15.57;;;;;;;;;;6265090;28;20316;-63
2022/11/17 05:23:54;;;;;;;25.13;16.27;;;;;;;;;;6265582;28;20326;-62
2022/11/17 05:26:56;;;;;;;23.20;14.90;;;;;;;;;;6263496;28;20045;-62
2022/11/17 05:29:58;;;;;;;23.92;14.88;;;;;;;;;;6266526;28;20253;-62
2022/11/17 05:32:59;;;;;;;22.70;14.45;;;;;;;;;;6265528;28;20061;-62
2022/11/17 05:36:02;;;;;;;25.38;15.40;;;;;;;;;;6263426;28;20060;-63
2022/11/17 05:39:04;;;;;;;22.40;14.18;;;;;;;;;;6267245;28;20356;-64
2022/11/17 05:42:06;;;;;;;24.00;14.52;;;;;;;;;;6263939;28;20084;-62
2022/11/17 05:45:09;;;;;;;22.05;14.60;;;;;;;;;;6268645;28;20045;-62
2022/11/17 05:48:10;;;;;;;22.98;15.25;;;;;;;;;;6267811;28;20061;-65
2022/11/17 05:51:13;;;;;;;24.40;15.40;;;;;;;;;;6263399;28;20107;-62
2022/11/17 05:54:15;;;;;;;26.50;15.60;;;;;;;;;;6266965;28;20241;-63
2022/11/17 05:57:21;;;;;;;22.88;14.32;;;;;;;;;;6265717;28;20052;-63
2022/11/17 06:00:23;;;;;;;23.77;15.15;;;;;;;;;;6264899;28;20059;-63
2022/11/17 06:03:26;;;;;;;22.95;15.35;;;;;;;;;;6263649;28;20107;-62
2022/11/17 06:06:30;;;;;;;25.65;15.95;;;;;;;;;;6265647;28;20045;-61
2022/11/17 06:09:33;;;;;;;22.38;14.60;;;;;;;;;;6266482;28;20061;-62
2022/11/17 06:12:35;;;;;;;23.63;14.93;;;;;;;;;;6260822;28;20103;-63
2022/11/17 06:15:37;;;;;;;21.80;15.38;;;;;;;;;;6240261;28;20337;-62
2022/11/17 06:18:41;;;;;;;23.23;15.43;;;;;;;;;;6245120;28;20062;-64
2022/11/17 06:21:45;;;;;;;26.17;16.63;;;;;;;;;;6243769;28;20057;-63
2022/11/17 06:24:46;;;;;;;26.02;16.40;;;;;;;;;;6241903;28;20045;-63
2022/11/17 06:27:49;;;;;;;24.83;16.63;;;;;;;;;;6242435;28;20104;-62
2022/11/17 06:30:51;;;;;;;25.50;15.93;;;;;;;;;;6237865;28;20322;-62
2022/11/17 06:33:52;;;;;;;24.30;16.00;;;;;;;;;;6243116;28;20111;-62
2022/11/17 06:36:55;;;;;;;27.27;16.25;;;;;;;;;;6243592;28;20045;-61
2022/11/17 06:39:57;;;;;;;25.38;16.90;;;;;;;;;;6238480;28;20054;-61
2022/11/17 06:43:07;;;;;;;21.55;15.30;;;;;;;;;;6242745;28;20046;-61
2022/11/17 06:46:09;;;;;;;22.95;15.70;;;;;;;;;;6239917;28;20053;-62
2022/11/17 06:49:10;;;;;;;23.33;15.52;;;;;;;;;;6241545;28;20062;-61
2022/11/17 06:52:15;;;;;;;23.45;15.93;;;;;;;;;;6246626;28;20045;-61
2022/11/17 06:55:17;;;;;;;25.50;16.13;;;;;;;;;;6245646;28;20075;-61
2022/11/17 06:58:18;;;;;;;23.35;16.08;;;;;;;;;;6246254;28;20050;-63
2022/11/17 07:01:20;;;;;;;24.23;16.33;;;;;;;;;;6244105;28;20060;-62
2022/11/17 07:04:22;;;;;;;22.40;15.13;;;;;;;;;;6246294;28;20099;-62
2022/11/17 07:07:25;;;;;;;25.13;16.63;;;;;;;;;;6244634;28;20058;-62
2022/11/17 07:10:27;;;;;;;23.80;16.38;;;;;;;;;;6244911;28;20049;-62
2022/11/17 07:13:29;;;;;;;21.35;14.82;;;;;;;;;;6242728;28;20184;-62
2022/11/17 07:16:31;;;;;;;23.58;15.98;;;;;;;;;;6257248;28;20061;-62
2022/11/17 07:19:33;;;;;;;24.08;15.68;;;;;;;;;;6268365;28;20056;-62
2022/11/17 07:22:37;;;;;;;22.05;15.70;;;;;;;;;;6265610;28;20562;-62
2022/11/17 07:25:38;;;;;;;21.45;14.65;;;;;;;;;;6266340;28;20057;-64
2022/11/17 07:28:40;;;;;;;22.40;15.98;;;;;;;;;;6266168;28;20059;-64
2022/11/17 07:31:42;;;;;;;24.88;16.45;;;;;;;;;;6268509;28;20057;-64
2022/11/17 07:34:43;;;;;;;24.25;16.70;;;;;;;;;;6270048;28;20056;-64
2022/11/17 07:37:46;;;;;;;24.17;16.38;;;;;;;;;;6271643;28;20064;-65
2022/11/17 07:40:48;;;;;;;22.35;15.77;;;;;;;;;;6269867;28;20056;-64
2022/11/17 07:43:49;;;;;;;23.52;15.63;;;;;;;;;;6267763;28;20046;-61
2022/11/17 07:46:51;;;;;;;25.45;15.73;;;;;;;;;;6269384;28;20045;-64
2022/11/17 07:49:53;;;;;;;27.02;16.60;;;;;;;;;;6267481;28;20052;-62
2022/11/17 07:52:57;;;;;;;23.65;16.30;;;;;;;;;;6266750;28;20060;-63
2022/11/17 07:56:03;;;;;;;24.27;16.05;;;;;;;;;;6269368;28;20052;-63
2022/11/17 07:59:04;;;;;;;22.80;15.98;;;;;;;;;;6268744;28;20075;-64
2022/11/17 08:02:06;;;;;;;21.70;15.88;;;;;;;;;;6266207;28;20217;-62
2022/11/17 08:05:09;;;;;;;23.33;15.57;;;;;;;;;;6267114;28;20053;-62
2022/11/17 08:08:12;;;;;;;22.75;16.08;;;;;;;;;;6267901;28;20072;-63
2022/11/17 08:11:14;;;;;;;23.17;16.17;;;;;;;;;;6265966;28;20053;-62
2022/11/17 08:14:15;;;;;;;22.88;15.35;;;;;;;;;;6267227;28;20073;-63
2022/11/17 08:17:17;;;;;;;24.88;16.63;;;;;;;;;;6260435;28;20095;-62
2022/11/17 08:20:19;;;;;;;23.85;17.50;;;;;;;;;;6267860;28;20053;-62
2022/11/17 08:23:22;;;;;;;29.13;21.10;;;;;;;;;;6269879;28;20055;-62
2022/11/17 08:26:24;;;;;;;29.38;19.08;;;;;;;;;;6265969;28;20383;-62
2022/11/17 08:29:25;;;;;;;26.05;17.83;;;;;;;;;;6273055;28;20049;-63
2022/11/17 08:32:28;;;;;;;23.83;17.30;;;;;;;;;;6262747;28;20091;-62
2022/11/17 08:35:32;;;;;;;23.65;16.85;;;;;;;;;;6267331;28;20373;-62
2022/11/17 08:38:35;;;;;;;26.10;18.45;;;;;;;;;;6255480;28;20125;-62
2022/11/17 08:41:37;;;;;;;30.35;19.05;;;;;;;;;;6267802;28;20057;-62
2022/11/17 08:44:38;;;;;;;24.88;17.60;;;;;;;;;;6260383;28;20052;-62
2022/11/17 08:47:40;;;;;;;23.75;17.42;;;;;;;;;;6259032;28;20064;-62
2022/11/17 08:50:42;;;;;;;25.35;16.52;;;;;;;;;;6267361;28;20045;-62
2022/11/17 08:53:45;;;;;;;25.13;16.25;;;;;;;;;;6268704;28;20122;-62
2022/11/17 08:56:46;;;;;;;25.27;16.45;;;;;;;;;;6265966;28;20107;-62
2022/11/17 08:59:48;;;;;;;22.05;15.85;;;;;;;;;;6268317;28;20048;-63
2022/11/17 09:02:50;;;;;;;24.60;15.55;;;;;;;;;;6266534;28;20057;-62
2022/11/17 09:05:51;;;;;;;22.92;15.88;;;;;;;;;;6265533;28;20049;-62
2022/11/17 09:08:55;;;;;;;22.33;15.85;;;;;;;;;;6265587;28;20061;-63
2022/11/17 09:11:56;;;;;;;24.85;15.88;;;;;;;;;;6266157;28;20279;-63
2022/11/17 09:14:58;;;;;;;25.65;16.48;;;;;;;;;;6265217;28;20054;-62
2022/11/17 09:18:01;;;;;;;23.38;15.90;;;;;;;;;;6264734;28;20049;-63
2022/11/17 09:21:05;;;;;;;24.65;16.90;;;;;;;;;;6262590;28;20156;-62
2022/11/17 09:24:08;;;;;;;24.15;16.63;;;;;;;;;;6274266;28;20071;-63
2022/11/17 09:27:10;;;;;;;24.88;16.70;;;;;;;;;;6267660;28;20354;-63
2022/11/17 09:30:13;;;;;;;25.80;16.75;;;;;;;;;;6266664;28;20049;-63
2022/11/17 09:33:14;;;;;;;23.67;16.23;;;;;;;;;;6268894;28;20072;-63
2022/11/17 09:36:16;;;;;;;26.13;18.25;;;;;;;;;;6265943;28;20099;-63
2022/11/17 09:39:20;;;;;;;27.95;17.83;;;;;;;;;;6266935;28;20048;-62
2022/11/17 09:42:22;;;;;;;30.50;18.92;;;;;;;;;;6266741;28;20057;-63
2022/11/17 09:45:28;;;;;;;34.17;19.30;;;;;;;;;;6265973;28;20053;-63
2022/11/17 09:48:37;;;;;;;29.38;18.67;;;;;;;;;;6266497;28;20046;-62
2022/11/17 09:51:40;;;;;;;30.00;17.08;;;;;;;;;;6260941;28;20352;-62
2022/11/17 09:54:48;;;;;;;26.45;17.20;;;;;;;;;;6266027;28;20053;-63
2022/11/17 09:57:55;;;;;;;27.38;16.92;;;;;;;;;;6262105;28;20119;-63
2022/11/17 10:00:57;;;;;;;25.52;16.23;;;;;;;;;;6260719;28;20087;-64
2022/11/17 10:04:00;;;;;;;25.35;15.65;;;;;;;;;;6264047;28;20068;-63
2022/11/17 10:07:03;;;;;;;24.47;17.33;;;;;;;;;;6264569;28;20284;-63
2022/11/17 10:10:12;;;;;;;24.00;16.90;;;;;;;;;;6264573;28;20067;-62
2022/11/17 10:13:19;;;;;;;26.45;16.67;;;;;;;;;;6267992;28;20112;-62
2022/11/17 10:16:21;;;;;;;22.95;16.17;;;;;;;;;;6263912;28;20232;-63
2022/11/17 10:19:24;;;;;;;24.25;16.48;;;;;;;;;;6265938;28;20061;-63
2022/11/17 10:22:34;;;;;;;25.17;16.07;;;;;;;;;;6265290;28;20057;-62
2022/11/17 10:25:39;;;;;;;23.98;15.75;;;;;;;;;;6265494;28;20049;-63
2022/11/17 10:28:40;;;;;;;22.27;15.57;;;;;;;;;;6262059;28;20045;-63
2022/11/17 10:31:44;;;;;;;23.17;16.33;;;;;;;;;;6265711;28;20100;-63
2022/11/17 10:34:46;;;;;;;24.60;15.65;;;;;;;;;;6266678;28;20107;-62
2022/11/17 10:37:54;;;;;;;22.17;16.58;;;;;;;;;;6267452;28;20297;-62
2022/11/17 10:40:59;;;;;;;25.48;16.25;;;;;;;;;;6265476;28;20134;-63
2022/11/17 10:44:03;;;;;;;23.48;16.42;;;;;;;;;;6263625;28;20376;-62
2022/11/17 10:47:06;;;;;;;20.73;14.52;;;;;;;;;;6259370;28;20118;-64
2022/11/17 10:50:17;;;;;;;21.58;15.00;;;;;;;;;;6256566;28;20057;-63
2022/11/17 10:53:25;;;;;;;21.55;15.15;;;;;;;;;;6268896;28;20379;-62
2022/11/17 10:56:29;;;;;;;19.85;14.98;;;;;;;;;;6264200;28;20053;-61
2022/11/17 10:59:30;;;;;;;;;;;;;;;;;;6266376;28;20402;-64
2022/11/17 11:02:35;;;;;;;21.15;14.95;;;;;;;;;;6264484;28;20055;-62
2022/11/17 11:05:37;;;;;;;21.58;14.45;;;;;;;;;;6267243;28;20202;-63
2022/11/17 11:08:45;;;;;;;23.42;16.25;;;;;;;;;;6266742;28;20051;-63
2022/11/17 11:11:50;;;;;;;22.80;17.30;;;;;;;;;;6256875;28;20053;-63
2022/11/17 11:14:54;;;;;;;25.70;18.05;;;;;;;;;;6268054;28;20057;-62
2022/11/17 11:17:57;;;;;;;24.88;16.55;;;;;;;;;;6264052;28;20049;-62
2022/11/17 11:21:06;;;;;;;23.35;17.52;;;;;;;;;;6259573;28;20057;-61
2022/11/17 11:24:14;;;;;;;25.33;17.60;;;;;;;;;;6265247;28;20099;-62
2022/11/17 11:27:30;;;;;;;26.10;18.30;;;;;;;;;;6263547;28;20045;-62
2022/11/17 11:30:35;;;;;;;24.25;18.83;;;;;;;;;;6262133;28;20041;-62
2022/11/17 11:33:39;;;;;;;24.75;18.08;;;;;;;;;;6266157;28;20053;-62
2022/11/17 11:36:41;;;;;;;;;;;;;;;;;;6269933;28;20214;-63
2022/11/17 11:39:50;;;;;;;22.70;16.63;;;;;;;;;;6269918;28;19917;-64
2022/11/17 11:42:56;;;;;;;20.55;16.50;;;;;;;;;;6272589;28;20248;-62
2022/11/17 11:46:03;;;;;;;21.75;16.15;;;;;;;;;;6270822;28;20151;-62
2022/11/17 11:49:13;;;;;;;24.75;17.63;;;;;;;;;;6267800;28;20221;-63
2022/11/17 11:52:19;;;;;;;24.27;17.08;;;;;;;;;;6268354;28;20269;-63
2022/11/17 11:55:22;;;;;;;22.20;16.20;;;;;;;;;;6270280;28;20049;-62
2022/11/17 11:58:25;;;;;;;22.90;16.63;;;;;;;;;;6267648;28;20333;-63
2022/11/17 12:01:29;;;;;;;24.53;17.03;;;;;;;;;;6269619;28;20053;-63
2022/11/17 12:04:32;;;;;;;;;;;;;;;;;;6267974;28;20045;-62
2022/11/17 12:07:37;;;;;;;22.73;15.73;;;;;;;;;;6269113;28;20173;-62
2022/11/17 12:10:43;;;;;;;22.73;16.95;;;;;;;;;;6259772;28;20379;-62
2022/11/17 12:13:46;;;;;;;23.95;17.08;;;;;;;;;;6260255;28;20064;-62
2022/11/17 12:16:48;;;;;;;22.75;16.45;;;;;;;;;;6267547;28;20102;-62
2022/11/17 12:19:56;;;;;;;24.02;17.23;;;;;;;;;;6265761;28;20330;-62
2022/11/17 12:23:11;;;;;;;21.98;16.17;;;;;;;;;;6263730;28;20059;-63
2022/11/17 12:26:22;;;;;;;21.17;15.68;;;;;;;;;;6265587;28;20258;-63
2022/11/17 12:29:31;;;;;;;19.88;15.50;;;;;;;;;;6268852;28;20079;-63
2022/11/17 12:33:00;;;;;;;23.15;15.52;;;;;;;;;;6271250;28;20083;-61
2022/11/17 12:36:26;;;;;;;17.25;13.95;;;;;;;;;;6177368;28;20182;-62
2022/11/17 12:39:53;;;;;;;22.23;15.00;;;;;;;;;;6177874;28;20051;-62
2022/11/17 12:43:19;;;;;;;22.45;14.77;;;;;;;;;;6174801;28;20047;-62
2022/11/17 12:46:29;;;;;;;20.55;15.48;;;;;;;;;;6173885;28;20047;-63
2022/11/17 12:49:35;;;;;;;22.33;15.63;;;;;;;;;;6176302;28;20058;-62
2022/11/17 12:52:47;;;;;;;22.20;16.05;;;;;;;;;;6174840;28;20078;-62
2022/11/17 12:55:59;;;;;;;23.00;16.05;;;;;;;;;;6173832;28;20331;-63
2022/11/17 12:59:31;;;;;;;22.50;15.82;;;;;;;;;;6173315;28;20066;-62
2022/11/17 13:02:52;;;;;;;22.30;15.52;;;;;;;;;;6167241;28;20062;-61
2022/11/17 13:06:06;;;;;;;22.90;16.67;;;;;;;;;;6168156;28;20227;-62
2022/11/17 13:09:12;;;;;;;24.63;16.52;;;;;;;;;;6171693;28;20047;-61
2022/11/17 13:12:13;;;;;;;22.20;16.48;;;;;;;;;;6240143;28;20049;-61
2022/11/17 13:15:22;;;;;;;21.85;15.55;;;;;;;;;;6266458;28;20866;-62
2022/11/17 13:18:30;;;;;;;20.23;15.30;;;;;;;;;;6265821;28;20057;-62
2022/11/17 13:21:32;;;;;;;21.58;15.80;;;;;;;;;;6263909;28;20044;-62
2022/11/17 13:24:36;;;;;;;21.33;15.73;;;;;;;;;;6266153;28;20057;-61
2022/11/17 13:27:44;;;;;;;19.98;15.60;;;;;;;;;;6268590;28;20045;-61
2022/11/17 13:30:46;;;;;;;21.17;15.90;;;;;;;;;;6268041;28;20118;-62
2022/11/17 13:34:02;;;;;;;21.85;15.82;;;;;;;;;;6272315;28;20321;-61
2022/11/17 13:37:04;;;;;;;22.08;15.85;;;;;;;;;;6266095;28;20048;-62
2022/11/17 13:40:18;;;;;;;20.10;15.60;;;;;;;;;;6265200;28;20045;-63
2022/11/17 13:43:21;;;;;;;20.42;14.48;;;;;;;;;;6268393;28;20075;-62
2022/11/17 13:46:23;;;;;;;20.00;15.15;;;;;;;;;;6264144;28;20271;-62
2022/11/17 13:49:34;;;;;;;19.35;15.05;;;;;;;;;;6264727;28;20053;-62
2022/11/17 13:52:37;;;;;;;18.23;13.90;;;;;;;;;;6267124;28;20057;-62
2022/11/17 13:55:43;;;;;;;20.15;14.73;;;;;;;;;;6266436;28;20091;-62
2022/11/17 13:58:48;;;;;;;19.90;14.18;;;;;;;;;;6262563;28;20222;-62
2022/11/17 14:01:50;;;;;;;20.40;14.60;;;;;;;;;;6267904;28;20053;-63
2022/11/17 14:05:21;;;;;;;18.00;14.07;;;;;;;;;;6263380;28;20052;-63
2022/11/17 14:08:27;;;;;;;20.42;14.77;;;;;;;;;;6265123;28;20077;-63
2022/11/17 14:11:29;;;;;;;21.58;15.52;;;;;;;;;;6266444;28;20211;-62
2022/11/17 14:14:32;;;;;;;19.27;14.02;;;;;;;;;;6263303;28;20052;-63
2022/11/17 14:17:34;;;;;;;18.27;13.85;;;;;;;;;;6265167;28;20108;-63
2022/11/17 14:20:37;;;;;;;20.08;14.48;;;;;;;;;;6265839;28;20049;-63
2022/11/17 14:23:39;;;;;;;17.83;12.68;;;;;;;;;;6261284;28;20099;-63
2022/11/17 14:26:43;;;;;;;17.77;12.77;;;;;;;;;;6268963;28;20340;-63
2022/11/17 14:29:45;;;;;;;;;;;;;;;;;;6267012;28;20690;-63
2022/11/17 14:32:46;;;;;;;18.65;13.48;;;;;;;;;;6264459;28;19929;-63
2022/11/17 14:35:51;;;;;;;17.38;12.98;;;;;;;;;;6264769;28;20123;-64
2022/11/17 14:38:52;;;;;;;19.75;14.02;;;;;;;;;;6263851;28;20252;-62
2022/11/17 14:41:54;;;;;;;21.98;16.10;;;;;;;;;;6263434;28;20315;-64
2022/11/17 14:44:56;;;;;;;23.95;17.85;;;;;;;;;;6264938;28;20227;-62
2022/11/17 14:47:57;;;;;;;27.92;18.77;;;;;;;;;;6265726;28;20068;-62
2022/11/17 14:51:00;;;;;;;31.10;19.88;;;;;;;;;;6264944;28;20374;-62
2022/11/17 14:54:02;;;;;;;26.13;19.70;;;;;;;;;;6263658;28;20041;-63
2022/11/17 14:57:04;;;;;;;30.05;20.05;;;;;;;;;;6264093;28;20160;-61
2022/11/17 15:00:08;;;;;;;26.52;19.58;;;;;;;;;;6260234;28;20054;-61
2022/11/17 15:03:10;;;;;;;30.35;19.42;;;;;;;;;;6253726;28;20057;-62
2022/11/17 15:06:13;;;;;;;28.38;21.33;;;;;;;;;;6260332;28;20053;-62
2022/11/17 15:09:15;;;;;;;30.25;22.63;;;;;;;;;;6262943;28;20041;-63
2022/11/17 15:12:17;;;;;;;28.38;20.58;;;;;;;;;;6267928;28;20045;-62
2022/11/17 15:15:19;;;;;;;26.83;20.25;;;;;;;;;;6266716;28;20297;-62
2022/11/17 15:18:20;;;;;;;27.67;20.40;;;;;;;;;;6268358;28;20056;-62
2022/11/17 15:21:23;;;;;;;32.45;21.00;;;;;;;;;;6268378;28;20099;-61
2022/11/17 15:24:25;;;;;;;36.30;22.90;;;;;;;;;;6268907;28;20061;-63
2022/11/17 15:27:27;;;;;;;32.80;21.33;;;;;;;;;;6266851;28;20325;-62
2022/11/17 15:30:28;;;;;;;29.42;20.40;;;;;;;;;;6269051;28;20053;-61
2022/11/17 15:33:31;;;;;;;29.60;21.00;;;;;;;;;;6269695;28;20071;-62
2022/11/17 15:36:34;;;;;;;29.08;21.05;;;;;;;;;;6267698;28;20113;-63
2022/11/17 15:39:35;;;;;;;26.77;20.77;;;;;;;;;;6268014;28;20068;-62
2022/11/17 15:42:37;;;;;;;28.52;20.67;;;;;;;;;;6267511;28;20048;-62
2022/11/17 15:45:39;;;;;;;28.00;21.73;;;;;;;;;;6269346;28;20242;-62
2022/11/17 15:48:42;;;;;;;31.90;22.48;;;;;;;;;;6267689;28;20048;-63
2022/11/17 15:51:45;;;;;;;28.15;20.35;;;;;;;;;;6268517;28;20108;-63
2022/11/17 15:54:46;;;;;;;31.57;21.80;;;;;;;;;;6270133;28;20056;-63
2022/11/17 15:57:48;;;;;;;30.73;21.33;;;;;;;;;;6268378;28;20049;-64
2022/11/17 16:00:50;;;;;;;33.63;23.60;;;;;;;;;;6267023;28;20325;-62
2022/11/17 16:03:52;;;;;;;29.88;22.33;;;;;;;;;;6269406;28;20044;-64
2022/11/17 16:06:55;;;;;;;40.22;28.63;;;;;;;;;;6267507;28;20270;-63
2022/11/17 16:09:57;;;;;;;76.90;48.55;;;;;;;;;;6270976;28;20165;-63
2022/11/17 16:12:59;;;;;;;54.47;38.08;;;;;;;;;;6268352;28;20075;-63
2022/11/17 16:16:00;;;;;;;42.83;27.90;;;;;;;;;;6268589;28;20752;-63
2022/11/17 16:19:03;;;;;;;34.38;24.10;;;;;;;;;;6266326;28;20052;-63
2022/11/17 16:22:06;;;;;;;32.83;21.70;;;;;;;;;;6266778;28;20119;-63
2022/11/17 16:25:09;;;;;;;27.17;20.75;;;;;;;;;;6270419;28;20155;-64
2022/11/17 16:28:12;;;;;;;28.43;21.07;;;;;;;;;;6268040;28;20079;-63
2022/11/17 16:31:15;;;;;;;27.45;20.90;;;;;;;;;;6269276;28;20048;-63
2022/11/17 16:34:18;;;;;;;29.77;20.25;;;;;;;;;;6267022;28;20382;-64
2022/11/17 16:37:20;;;;;;;29.13;20.55;;;;;;;;;;6269575;28;20116;-64
2022/11/17 16:40:22;;;;;;;30.17;21.25;;;;;;;;;;6267784;28;20248;-64
2022/11/17 16:43:24;;;;;;;27.70;20.75;;;;;;;;;;6265498;28;20052;-63
2022/11/17 16:46:27;;;;;;;29.05;20.88;;;;;;;;;;6264841;28;20061;-64
2022/11/17 16:49:31;;;;;;;29.70;21.48;;;;;;;;;;6267065;28;20107;-64
2022/11/17 16:52:35;;;;;;;35.17;21.90;;;;;;;;;;6269883;28;20263;-63
2022/11/17 16:55:37;;;;;;;31.25;22.05;;;;;;;;;;6257237;28;20314;-64
2022/11/17 16:58:39;;;;;;;30.08;20.95;;;;;;;;;;6267245;28;20049;-64
2022/11/17 17:01:41;;;;;;;28.40;21.55;;;;;;;;;;6267399;28;20336;-64
2022/11/17 17:04:42;;;;;;;31.10;23.08;;;;;;;;;;6265024;28;20049;-63
2022/11/17 17:07:46;;;;;;;31.30;22.10;;;;;;;;;;6267170;28;20049;-64
2022/11/17 17:10:47;;;;;;;27.60;20.93;;;;;;;;;;6267590;28;20049;-64
2022/11/17 17:13:49;;;;;;;30.15;21.73;;;;;;;;;;6267080;28;20090;-64
2022/11/17 17:16:51;;;;;;;28.63;20.75;;;;;;;;;;6264264;28;20075;-63
2022/11/17 17:19:53;;;;;;;28.40;20.85;;;;;;;;;;6266491;28;20084;-64
2022/11/17 17:22:56;;;;;;;32.10;22.55;;;;;;;;;;6266235;28;20046;-65
2022/11/17 17:26:02;;;;;;;31.70;21.80;;;;;;;;;;6264586;28;20057;-64
2022/11/17 17:29:05;;;;;;;31.83;20.80;;;;;;;;;;6265891;28;20116;-65
2022/11/17 17:32:07;;;;;;;31.25;22.13;;;;;;;;;;6268762;28;20107;-64
2022/11/17 17:35:09;;;;;;;29.92;21.55;;;;;;;;;;6265517;28;20064;-64
2022/11/17 17:38:12;;;;;;;29.25;22.35;;;;;;;;;;6263996;28;20087;-64
2022/11/17 17:41:15;;;;;;;28.40;21.80;;;;;;;;;;6267970;28;20060;-64
2022/11/17 17:44:17;;;;;;;29.10;22.13;;;;;;;;;;6263665;28;20045;-64
2022/11/17 17:47:19;;;;;;;29.20;21.58;;;;;;;;;;6265034;28;20057;-65
2022/11/17 17:50:21;;;;;;;29.25;21.10;;;;;;;;;;6262984;28;20056;-64
2022/11/17 17:53:25;;;;;;;29.42;21.60;;;;;;;;;;6266558;28;20172;-64
2022/11/17 17:56:26;;;;;;;30.35;22.63;;;;;;;;;;6264391;28;20060;-64
2022/11/17 17:59:28;;;;;;;30.98;21.33;;;;;;;;;;6266140;28;20053;-64
2022/11/17 18:02:30;;;;;;;29.15;21.73;;;;;;;;;;6264889;28;20060;-63
2022/11/17 18:05:32;;;;;;;31.15;21.63;;;;;;;;;;6266290;28;20341;-63
2022/11/17 18:08:35;;;;;;;29.00;21.50;;;;;;;;;;6265836;28;20127;-65
2022/11/17 18:11:44;;;;;;;29.95;22.02;;;;;;;;;;6264251;28;20057;-64
2022/11/17 18:14:46;;;;;;;31.73;22.48;;;;;;;;;;6265082;28;20053;-64
2022/11/17 18:17:47;;;;;;;29.77;21.38;;;;;;;;;;6268051;28;20044;-62